createdAt,value
2022-12-23T00:01:01.677Z,10.30
2022-12-23T00:03:04.660Z,10.30
2022-12-23T00:05:07.545Z,9.50
2022-12-23T00:07:10.061Z,10.30
2022-12-23T00:09:12.604Z,10.30
2022-12-23T00:11:16.750Z,10.30
2022-12-23T00:13:38.934Z,10.30
2022-12-23T00:15:41.497Z,10.30
2022-12-23T00:17:44.923Z,10.30
2022-12-23T00:19:47.375Z,10.30
2022-12-23T00:21:49.898Z,10.30
2022-12-23T00:23:52.390Z,10.40
2022-12-23T00:25:55.198Z,10.40
2022-12-23T00:28:01.090Z,10.40
2022-12-23T00:30:04.402Z,10.40
2022-12-23T00:32:07.222Z,10.40
2022-12-23T00:34:10.886Z,10.40
2022-12-23T00:36:14.854Z,10.30
2022-12-23T00:38:19.683Z,10.40
2022-12-23T00:40:40.686Z,10.40
2022-12-23T00:42:55.857Z,10.40
2022-12-23T00:45:00.747Z,10.40
2022-12-23T00:47:03.744Z,10.40
2022-12-23T00:49:29.044Z,9.80
2022-12-23T00:51:32.465Z,10.40
2022-12-23T00:53:36.413Z,10.40
2022-12-23T00:55:39.671Z,10.40
2022-12-23T00:57:42.830Z,10.30
2022-12-23T00:59:45.495Z,10.40
2022-12-23T01:02:06.191Z,10.40
2022-12-23T01:04:29.469Z,10.40
2022-12-23T01:06:32.000Z,10.40
2022-12-23T01:08:34.513Z,10.40
2022-12-23T01:10:37.489Z,10.40
2022-12-23T01:12:40.023Z,10.40
2022-12-23T01:14:42.466Z,10.40
2022-12-23T01:16:45.158Z,10.40
2022-12-23T01:18:47.692Z,10.40
2022-12-23T01:20:50.167Z,10.40
2022-12-23T01:22:52.934Z,10.40
2022-12-23T01:24:55.639Z,10.40
2022-12-23T01:26:58.379Z,10.40
2022-12-23T01:29:01.393Z,10.30
2022-12-23T01:31:05.117Z,10.40
2022-12-23T01:33:07.644Z,10.40
2022-12-23T01:35:10.159Z,10.40
2022-12-23T01:37:12.627Z,10.40
2022-12-23T01:39:15.154Z,10.40
2022-12-23T01:41:20.261Z,10.40
2022-12-23T01:43:23.152Z,10.40
2022-12-23T01:45:27.464Z,10.40
2022-12-23T01:47:35.781Z,10.40
2022-12-23T01:49:38.378Z,10.40
2022-12-23T01:51:40.885Z,10.50
2022-12-23T01:53:45.161Z,10.40
2022-12-23T01:55:49.398Z,10.40
2022-12-23T01:57:53.380Z,10.40
2022-12-23T02:00:13.877Z,10.50
2022-12-23T02:02:36.313Z,10.40
2022-12-23T02:04:38.975Z,10.50
2022-12-23T02:07:01.010Z,10.50
2022-12-23T02:09:17.165Z,10.40
2022-12-23T02:11:27.594Z,10.50
2022-12-23T02:13:31.803Z,10.50
2022-12-23T02:15:54.813Z,10.50
2022-12-23T02:18:00.381Z,10.50
2022-12-23T02:20:20.871Z,10.40
2022-12-23T02:22:28.485Z,10.50
2022-12-23T02:24:50.156Z,10.50
2022-12-23T02:27:11.095Z,10.50
2022-12-23T02:29:19.296Z,10.30
2022-12-23T02:31:23.705Z,10.50
2022-12-23T02:33:35.219Z,10.50
2022-12-23T02:35:40.163Z,10.50
2022-12-23T02:37:45.595Z,10.40
2022-12-23T02:39:50.838Z,10.40
2022-12-23T02:41:55.495Z,10.40
2022-12-23T02:43:59.851Z,10.70
2022-12-23T02:46:04.508Z,10.30
2022-12-23T02:48:09.409Z,10.50
2022-12-23T02:50:13.720Z,10.50
2022-12-23T02:52:18.272Z,10.50
2022-12-23T02:54:22.970Z,10.50
2022-12-23T02:56:26.265Z,10.50
2022-12-23T02:58:30.747Z,10.50
2022-12-23T03:00:34.293Z,10.50
2022-12-23T03:02:38.587Z,10.50
2022-12-23T03:04:42.211Z,10.50
2022-12-23T03:06:46.754Z,10.50
2022-12-23T03:08:50.218Z,10.50
2022-12-23T03:11:04.125Z,10.50
2022-12-23T03:13:10.369Z,10.50
2022-12-23T03:15:17.106Z,10.50
2022-12-23T03:17:28.320Z,10.50
2022-12-23T03:19:31.925Z,10.50
2022-12-23T03:21:37.972Z,10.50
2022-12-23T03:23:41.649Z,10.50
2022-12-23T03:25:46.317Z,10.50
2022-12-23T03:27:50.979Z,10.60
2022-12-23T03:29:55.358Z,10.50
2022-12-23T03:31:58.943Z,10.50
2022-12-23T03:34:03.747Z,10.50
2022-12-23T03:36:08.731Z,10.50
2022-12-23T03:38:13.038Z,10.50
2022-12-23T03:40:17.416Z,10.50
2022-12-23T03:42:21.935Z,10.60
2022-12-23T03:44:26.286Z,10.50
2022-12-23T03:46:31.708Z,10.50
2022-12-23T03:48:37.674Z,10.60
2022-12-23T03:50:42.292Z,10.60
2022-12-23T03:52:47.512Z,10.60
2022-12-23T03:54:58.636Z,10.50
2022-12-23T03:57:09.556Z,10.50
2022-12-23T03:59:14.550Z,10.60
2022-12-23T04:01:19.261Z,10.60
2022-12-23T04:03:23.911Z,10.50
2022-12-23T04:05:28.046Z,10.50
2022-12-23T04:07:32.424Z,10.50
2022-12-23T04:09:35.792Z,10.50
2022-12-23T04:11:38.763Z,10.50
2022-12-23T04:13:41.234Z,10.50
2022-12-23T04:15:44.156Z,10.50
2022-12-23T04:17:47.419Z,10.60
2022-12-23T04:19:51.492Z,10.50
2022-12-23T04:21:54.408Z,10.50
2022-12-23T04:23:56.897Z,10.50
2022-12-23T04:25:59.460Z,10.50
2022-12-23T04:28:02.430Z,10.50
2022-12-23T04:30:07.654Z,10.50
2022-12-23T04:32:10.672Z,10.50
2022-12-23T04:34:13.519Z,10.50
2022-12-23T04:36:16.011Z,10.50
2022-12-23T04:38:18.692Z,10.50
2022-12-23T04:40:21.287Z,10.40
2022-12-23T04:42:24.391Z,10.50
2022-12-23T04:44:27.320Z,10.50
2022-12-23T04:46:29.972Z,10.50
2022-12-23T04:48:32.551Z,10.50
2022-12-23T04:50:35.246Z,10.50
2022-12-23T04:52:37.862Z,10.50
2022-12-23T04:54:46.033Z,10.50
2022-12-23T04:56:45.263Z,10.50
2022-12-23T04:58:47.850Z,10.50
2022-12-23T05:00:50.579Z,10.50
2022-12-23T05:02:53.222Z,10.50
2022-12-23T05:04:56.104Z,10.50
2022-12-23T05:06:58.783Z,10.50
2022-12-23T05:09:01.259Z,10.50
2022-12-23T05:11:04.266Z,10.50
2022-12-23T05:13:07.170Z,10.60
2022-12-23T05:15:10.790Z,10.50
2022-12-23T05:17:13.270Z,10.50
2022-12-23T05:19:15.903Z,10.50
2022-12-23T05:21:18.866Z,10.50
2022-12-23T05:23:21.493Z,10.50
2022-12-23T05:25:23.969Z,10.50
2022-12-23T05:27:26.706Z,10.50
2022-12-23T05:29:29.518Z,10.60
2022-12-23T05:31:32.309Z,10.60
2022-12-23T05:33:35.442Z,10.50
2022-12-23T05:35:38.059Z,10.50
2022-12-23T05:37:40.601Z,10.50
2022-12-23T05:39:43.142Z,10.50
2022-12-23T05:41:45.661Z,10.50
2022-12-23T05:43:48.173Z,10.50
2022-12-23T05:45:50.941Z,10.50
2022-12-23T05:47:53.619Z,10.50
2022-12-23T05:49:56.134Z,10.50
2022-12-23T05:51:58.628Z,10.50
2022-12-23T05:54:01.152Z,10.50
2022-12-23T05:56:04.784Z,10.50
2022-12-23T05:58:07.486Z,10.40
2022-12-23T06:00:11.055Z,10.40
2022-12-23T06:02:15.178Z,10.50
2022-12-23T06:04:18.724Z,10.50
2022-12-23T06:06:21.238Z,10.50
2022-12-23T06:08:23.708Z,10.50
2022-12-23T06:10:26.229Z,10.50
2022-12-23T06:12:28.703Z,10.50
2022-12-23T06:14:31.189Z,10.50
2022-12-23T06:16:33.876Z,10.50
2022-12-23T06:18:36.416Z,10.50
2022-12-23T06:20:38.874Z,10.50
2022-12-23T06:22:41.677Z,10.50
2022-12-23T06:24:44.189Z,10.50
2022-12-23T06:26:49.698Z,10.40
2022-12-23T06:28:51.419Z,10.50
2022-12-23T06:30:54.402Z,10.50
2022-12-23T06:32:56.912Z,10.50
2022-12-23T06:34:59.614Z,10.50
2022-12-23T06:37:02.240Z,10.50
2022-12-23T06:39:04.805Z,10.50
2022-12-23T06:41:07.861Z,10.40
2022-12-23T06:43:12.376Z,10.40
2022-12-23T06:45:14.909Z,10.40
2022-12-23T06:47:17.531Z,10.40
2022-12-23T06:49:20.162Z,10.40
2022-12-23T06:51:22.683Z,10.40
2022-12-23T06:53:25.472Z,10.40
2022-12-23T06:55:28.141Z,10.40
2022-12-23T06:57:30.890Z,10.40
2022-12-23T06:59:33.356Z,10.40
2022-12-23T07:01:35.948Z,10.40
2022-12-23T07:03:38.563Z,10.40
2022-12-23T07:05:41.183Z,10.40
2022-12-23T07:07:43.780Z,10.40
2022-12-23T07:09:46.333Z,10.40
2022-12-23T07:11:49.122Z,10.50
2022-12-23T07:13:51.747Z,10.40
2022-12-23T07:15:54.239Z,10.40
2022-12-23T07:17:56.792Z,10.40
2022-12-23T07:19:59.913Z,10.40
2022-12-23T07:22:02.839Z,10.40
2022-12-23T07:24:06.743Z,10.40
2022-12-23T07:26:09.343Z,10.40
2022-12-23T07:28:12.096Z,10.40
2022-12-23T07:30:15.305Z,10.40
2022-12-23T07:32:18.067Z,10.40
2022-12-23T07:34:23.596Z,10.40
2022-12-23T07:36:28.157Z,10.40
2022-12-23T07:38:33.928Z,10.40
2022-12-23T07:40:36.871Z,10.40
2022-12-23T07:42:47.278Z,10.40
2022-12-23T07:44:44.135Z,10.40
2022-12-23T07:46:46.794Z,10.40
2022-12-23T07:48:49.342Z,10.40
2022-12-23T07:50:51.805Z,10.40
2022-12-23T07:52:54.680Z,10.30
2022-12-23T07:54:57.345Z,10.40
2022-12-23T07:56:59.839Z,10.40
2022-12-23T07:59:04.339Z,10.40
2022-12-23T08:01:08.147Z,10.40
2022-12-23T08:03:11.496Z,10.40
2022-12-23T08:05:14.928Z,10.40
2022-12-23T08:07:17.471Z,10.40
2022-12-23T08:09:19.947Z,10.40
2022-12-23T08:11:22.496Z,10.40
2022-12-23T08:13:24.960Z,10.40
2022-12-23T08:15:27.488Z,10.40
2022-12-23T08:17:30.480Z,10.40
2022-12-23T08:19:33.031Z,10.40
2022-12-23T08:21:35.556Z,10.40
2022-12-23T08:23:38.163Z,10.40
2022-12-23T08:25:40.664Z,10.40
2022-12-23T08:27:43.177Z,10.40
2022-12-23T08:29:45.704Z,10.40
2022-12-23T08:31:49.808Z,10.40
2022-12-23T08:33:53.561Z,10.40
2022-12-23T08:35:56.120Z,10.40
2022-12-23T08:37:58.614Z,10.40
2022-12-23T08:40:01.248Z,10.40
2022-12-23T08:42:04.121Z,10.30
2022-12-23T08:44:06.955Z,10.40
2022-12-23T08:46:10.131Z,10.30
2022-12-23T08:48:13.176Z,10.40
2022-12-23T08:50:15.792Z,10.40
2022-12-23T08:52:18.329Z,10.40
2022-12-23T08:54:21.750Z,10.40
2022-12-23T08:56:25.757Z,10.40
2022-12-23T08:58:28.665Z,10.40
2022-12-23T09:00:31.373Z,10.40
2022-12-23T09:02:34.376Z,10.30
2022-12-23T09:04:37.095Z,10.40
2022-12-23T09:06:40.583Z,10.30
2022-12-23T09:08:43.611Z,10.30
2022-12-23T09:10:46.146Z,10.40
2022-12-23T09:12:49.080Z,10.40
2022-12-23T09:14:51.665Z,10.30
2022-12-23T09:16:54.162Z,10.40
2022-12-23T09:18:56.659Z,10.30
2022-12-23T09:20:59.631Z,10.40
2022-12-23T09:23:02.269Z,10.30
2022-12-23T09:25:05.666Z,10.30
2022-12-23T09:27:08.382Z,10.30
2022-12-23T09:29:11.075Z,10.30
2022-12-23T09:31:13.824Z,10.30
2022-12-23T09:33:16.667Z,10.30
2022-12-23T09:35:19.150Z,10.30
2022-12-23T09:37:21.706Z,10.40
2022-12-23T09:39:24.232Z,10.40
2022-12-23T09:41:33.363Z,10.40
2022-12-23T09:43:38.291Z,10.40
2022-12-23T09:45:45.572Z,10.40
2022-12-23T09:47:49.209Z,10.40
2022-12-23T09:49:53.721Z,10.30
2022-12-23T09:51:59.643Z,10.40
2022-12-23T09:54:04.813Z,10.40
2022-12-23T09:56:09.339Z,10.40
2022-12-23T09:58:15.751Z,10.40
2022-12-23T10:00:18.919Z,10.30
2022-12-23T10:02:23.564Z,10.40
2022-12-23T10:04:39.112Z,10.30
2022-12-23T10:06:43.401Z,10.40
2022-12-23T10:08:47.453Z,10.40
2022-12-23T10:10:52.258Z,10.40
2022-12-23T10:12:55.899Z,10.40
2022-12-23T10:15:00.242Z,10.30
2022-12-23T10:17:04.515Z,10.30
2022-12-23T10:19:08.920Z,10.40
2022-12-23T10:21:14.105Z,10.40
2022-12-23T10:23:18.507Z,10.40
2022-12-23T10:25:23.091Z,10.30
2022-12-23T10:27:27.777Z,10.30
2022-12-23T10:29:31.516Z,10.40
2022-12-23T10:31:41.249Z,10.40
2022-12-23T10:33:43.662Z,10.40
2022-12-23T10:35:48.826Z,10.40
2022-12-23T10:37:53.147Z,10.40
2022-12-23T10:39:58.324Z,10.40
2022-12-23T10:42:04.145Z,10.40
2022-12-23T10:44:15.559Z,10.40
2022-12-23T10:46:20.200Z,10.40
2022-12-23T10:48:27.235Z,10.40
2022-12-23T10:50:37.224Z,10.40
2022-12-23T10:52:40.747Z,10.40
2022-12-23T10:54:45.257Z,10.40
2022-12-23T10:56:48.645Z,10.40
2022-12-23T10:58:52.762Z,10.40
2022-12-23T11:00:58.123Z,10.40
2022-12-23T11:03:05.579Z,10.40
2022-12-23T11:05:12.773Z,10.40
2022-12-23T11:07:43.462Z,10.40
2022-12-23T11:09:25.998Z,10.40
2022-12-23T11:11:48.922Z,10.40
2022-12-23T11:13:51.427Z,10.30
2022-12-23T11:15:55.101Z,10.40
2022-12-23T11:18:01.907Z,10.40
2022-12-23T11:20:10.126Z,10.40
2022-12-23T11:22:21.360Z,10.40
2022-12-23T11:24:24.335Z,10.50
2022-12-23T11:26:27.938Z,10.40
2022-12-23T11:28:31.251Z,10.40
2022-12-23T11:30:35.585Z,10.50
2022-12-23T11:32:39.413Z,10.50
2022-12-23T11:34:43.779Z,10.40
2022-12-23T11:36:56.583Z,10.40
2022-12-23T11:39:01.028Z,10.40
2022-12-23T11:41:04.692Z,10.40
2022-12-23T11:43:09.096Z,10.40
2022-12-23T11:45:21.200Z,10.40
2022-12-23T11:47:30.117Z,10.30
2022-12-23T11:49:32.621Z,10.30
2022-12-23T11:51:35.141Z,10.30
2022-12-23T11:53:39.425Z,10.40
2022-12-23T11:55:46.469Z,10.40
2022-12-23T11:57:49.256Z,10.40
2022-12-23T11:59:53.684Z,10.40
2022-12-23T12:01:57.754Z,10.50
2022-12-23T12:04:01.172Z,10.40
2022-12-23T12:06:05.539Z,10.40
2022-12-23T12:08:10.240Z,10.40
2022-12-23T12:10:17.166Z,10.40
2022-12-23T12:12:21.343Z,10.40
2022-12-23T12:14:25.631Z,10.50
2022-12-23T12:16:41.893Z,10.50
2022-12-23T12:18:46.247Z,10.50
2022-12-23T12:20:51.324Z,10.50
2022-12-23T12:22:55.668Z,10.50
2022-12-23T12:25:00.790Z,10.50
2022-12-23T12:27:05.108Z,10.50
2022-12-23T12:29:09.101Z,10.50
2022-12-23T12:31:14.236Z,10.40
2022-12-23T12:33:18.709Z,10.40
2022-12-23T12:35:24.203Z,10.50
2022-12-23T12:37:29.931Z,10.40
2022-12-23T12:39:34.071Z,10.40
2022-12-23T12:41:37.718Z,10.40
2022-12-23T12:43:42.916Z,10.40
2022-12-23T12:45:48.132Z,10.40
2022-12-23T12:47:57.091Z,10.40
2022-12-23T12:50:00.718Z,10.30
2022-12-23T12:52:05.333Z,10.30
2022-12-23T12:54:12.710Z,10.30
2022-12-23T12:56:17.479Z,10.30
2022-12-23T12:58:21.183Z,10.30
2022-12-23T13:00:24.607Z,10.30
2022-12-23T13:02:38.789Z,10.40
2022-12-23T13:04:55.395Z,10.40
2022-12-23T13:07:01.407Z,10.30
2022-12-23T13:09:07.342Z,10.40
2022-12-23T13:11:12.232Z,10.30
2022-12-23T13:13:19.288Z,10.30
2022-12-23T13:15:24.629Z,10.30
2022-12-23T13:17:29.076Z,10.40
2022-12-23T13:19:34.465Z,10.30
2022-12-23T13:21:39.573Z,10.30
2022-12-23T13:23:44.823Z,10.30
2022-12-23T13:25:49.783Z,10.30
2022-12-23T13:27:54.969Z,10.20
2022-12-23T13:30:02.037Z,10.20
2022-12-23T13:32:06.458Z,10.20
2022-12-23T13:34:12.368Z,10.10
2022-12-23T13:36:21.575Z,10.20
2022-12-23T13:38:32.400Z,10.10
2022-12-23T13:40:37.467Z,10.10
2022-12-23T13:42:41.816Z,10.10
2022-12-23T13:44:44.795Z,10.10
2022-12-23T13:46:49.515Z,10.10
2022-12-23T13:48:55.164Z,10.10
2022-12-23T13:50:59.617Z,10.10
2022-12-23T13:53:06.046Z,10.10
2022-12-23T13:55:11.679Z,10.10
2022-12-23T13:57:17.677Z,10.10
2022-12-23T13:59:20.210Z,10.00
2022-12-23T14:01:30.680Z,10.10
2022-12-23T14:03:34.091Z,10.00
2022-12-23T14:05:38.299Z,10.00
2022-12-23T14:07:42.832Z,10.00
2022-12-23T14:09:47.135Z,10.00
2022-12-23T14:11:49.907Z,10.00
2022-12-23T14:13:55.147Z,10.00
2022-12-23T14:16:18.984Z,10.00
2022-12-23T14:18:32.631Z,9.90
2022-12-23T14:21:02.270Z,9.90
2022-12-23T14:23:09.654Z,10.00
2022-12-23T14:25:18.331Z,10.00
2022-12-23T14:27:27.561Z,9.90
2022-12-23T14:29:40.552Z,9.90
2022-12-23T14:31:44.927Z,9.90
2022-12-23T14:33:48.181Z,9.90
2022-12-23T14:35:52.278Z,9.90
2022-12-23T14:38:12.936Z,9.90
2022-12-23T14:40:33.160Z,9.90
2022-12-23T14:42:37.662Z,9.90
2022-12-23T14:44:45.219Z,9.80
2022-12-23T14:46:56.620Z,9.80
2022-12-23T14:49:38.420Z,9.80
2022-12-23T14:51:23.376Z,9.80
2022-12-23T14:53:26.945Z,9.80
2022-12-23T14:55:48.757Z,9.70
2022-12-23T14:57:53.031Z,9.80
2022-12-23T14:59:57.510Z,9.80
2022-12-23T15:02:02.045Z,9.70
2022-12-23T15:04:10.363Z,9.70
2022-12-23T15:06:16.076Z,9.70
2022-12-23T15:08:21.508Z,9.70
2022-12-23T15:10:25.922Z,9.70
2022-12-23T15:12:31.066Z,9.80
2022-12-23T15:14:36.404Z,9.70
2022-12-23T15:16:41.786Z,9.70
2022-12-23T15:18:52.934Z,9.60
2022-12-23T15:20:59.324Z,9.60
2022-12-23T15:23:02.248Z,9.70
2022-12-23T15:25:06.924Z,9.70
2022-12-23T15:27:26.436Z,9.60
2022-12-23T15:29:16.624Z,9.60
2022-12-23T15:31:22.380Z,9.60
2022-12-23T15:34:01.551Z,9.60
2022-12-23T15:35:32.014Z,9.60
2022-12-23T15:37:34.968Z,9.60
2022-12-23T15:39:39.281Z,9.60
2022-12-23T15:41:42.912Z,9.60
2022-12-23T15:43:45.460Z,9.60
2022-12-23T15:45:47.948Z,9.70
2022-12-23T15:47:51.068Z,9.60
2022-12-23T15:49:53.534Z,9.60
2022-12-23T15:52:08.015Z,9.60
2022-12-23T15:54:03.797Z,9.50
2022-12-23T15:56:08.070Z,9.50
2022-12-23T15:58:16.052Z,9.50
2022-12-23T16:00:20.856Z,9.50
2022-12-23T16:04:30.863Z,9.40
2022-12-23T16:06:35.188Z,9.50
2022-12-23T16:08:38.485Z,9.50
2022-12-23T16:10:41.628Z,9.50
2022-12-23T16:12:44.399Z,9.50
2022-12-23T16:14:51.958Z,9.50
2022-12-23T16:16:56.878Z,9.50
2022-12-23T16:18:59.404Z,9.50
2022-12-23T16:21:03.816Z,9.50
2022-12-23T16:23:09.084Z,9.50
2022-12-23T16:25:13.924Z,9.50
2022-12-23T16:27:18.514Z,9.50
2022-12-23T16:29:21.979Z,9.50
2022-12-23T16:31:25.183Z,9.60
2022-12-23T16:33:32.039Z,9.60
2022-12-23T16:35:36.239Z,9.70
2022-12-23T16:37:38.920Z,9.70
2022-12-23T16:39:41.444Z,9.70
2022-12-23T16:41:44.597Z,9.80
2022-12-23T16:43:52.123Z,9.80
2022-12-23T16:45:52.677Z,9.80
2022-12-23T16:47:56.714Z,9.80
2022-12-23T16:49:59.509Z,9.90
2022-12-23T16:52:03.314Z,9.90
2022-12-23T16:54:06.320Z,9.90
2022-12-23T16:56:11.563Z,9.90
2022-12-23T16:58:14.008Z,9.90
2022-12-23T17:00:18.793Z,9.90
2022-12-23T17:02:23.118Z,9.90
2022-12-23T17:04:25.920Z,10.00
2022-12-23T17:06:28.647Z,10.10
2022-12-23T17:08:31.406Z,10.10
2022-12-23T17:10:34.191Z,10.20
2022-12-23T17:12:36.695Z,10.30
2022-12-23T17:14:39.819Z,10.40
2022-12-23T17:16:42.434Z,10.50
2022-12-23T17:18:45.161Z,10.60
2022-12-23T17:20:48.796Z,10.70
2022-12-23T17:22:55.039Z,10.80
2022-12-23T17:24:57.851Z,10.90
2022-12-23T17:27:00.381Z,11.10
2022-12-23T17:29:03.581Z,11.20
2022-12-23T17:31:13.735Z,11.60
2022-12-23T17:33:12.413Z,11.50
2022-12-23T17:35:15.308Z,11.50
2022-12-23T17:37:18.812Z,11.50
2022-12-23T17:39:22.073Z,11.60
2022-12-23T17:41:27.669Z,11.90
2022-12-23T17:43:30.205Z,11.70
2022-12-23T17:45:32.979Z,11.80
2022-12-23T17:47:35.730Z,11.80
2022-12-23T17:49:38.705Z,11.80
2022-12-23T17:51:42.510Z,11.50
2022-12-23T17:53:45.137Z,11.90
2022-12-23T17:55:47.768Z,11.90
2022-12-23T17:57:51.663Z,11.90
2022-12-23T17:59:54.408Z,11.90
2022-12-23T18:01:57.059Z,11.90
2022-12-23T18:04:00.339Z,12.00
2022-12-23T18:06:02.996Z,12.00
2022-12-23T18:08:05.648Z,11.90
2022-12-23T18:10:11.586Z,11.90
2022-12-23T18:12:25.790Z,12.00
2022-12-23T18:14:28.437Z,12.00
2022-12-23T18:16:31.040Z,12.00
2022-12-23T18:18:45.501Z,12.00
2022-12-23T18:20:39.987Z,11.90
2022-12-23T18:22:42.612Z,12.00
2022-12-23T18:24:45.472Z,12.00
2022-12-23T18:26:49.597Z,12.00
2022-12-23T18:28:53.470Z,12.00
2022-12-23T18:30:57.383Z,12.00
2022-12-23T18:33:00.434Z,12.00
2022-12-23T18:35:03.164Z,12.00
2022-12-23T18:37:10.810Z,11.90
2022-12-23T18:39:14.692Z,11.90
2022-12-23T18:41:19.987Z,11.90
2022-12-23T18:43:24.291Z,12.00
2022-12-23T18:45:30.685Z,12.30
2022-12-23T18:47:34.693Z,11.90
2022-12-23T18:49:37.956Z,11.90
2022-12-23T18:51:40.538Z,11.90
2022-12-23T18:53:43.197Z,11.80
2022-12-23T18:55:45.734Z,11.80
2022-12-23T18:57:48.436Z,11.80
2022-12-23T18:59:51.295Z,11.80
2022-12-23T19:01:53.864Z,11.80
2022-12-23T19:03:56.499Z,11.80
2022-12-23T19:06:01.394Z,11.80
2022-12-23T19:08:04.341Z,11.80
2022-12-23T19:10:08.698Z,11.80
2022-12-23T19:12:11.230Z,11.80
2022-12-23T19:14:14.025Z,11.80
2022-12-23T19:16:17.806Z,11.80
2022-12-23T19:18:21.885Z,11.70
2022-12-23T19:20:24.917Z,9.60
2022-12-23T19:22:27.451Z,12.00
2022-12-23T19:24:30.286Z,11.80
2022-12-23T19:26:32.839Z,11.90
2022-12-23T19:28:36.762Z,11.80
2022-12-23T19:30:40.608Z,11.70
2022-12-23T19:32:43.439Z,11.80
2022-12-23T19:34:46.925Z,11.80
2022-12-23T19:36:49.617Z,11.80
2022-12-23T19:38:52.316Z,11.80
2022-12-23T19:41:07.735Z,11.80
2022-12-23T19:43:10.442Z,8.80
2022-12-23T19:45:13.467Z,11.70
2022-12-23T19:47:16.153Z,11.70
2022-12-23T19:49:20.295Z,11.60
2022-12-23T19:51:23.273Z,11.60
2022-12-23T19:53:26.082Z,11.50
2022-12-23T19:55:28.652Z,9.70
2022-12-23T19:57:31.185Z,11.60
2022-12-23T19:59:35.174Z,11.50
2022-12-23T20:01:37.841Z,11.50
2022-12-23T20:03:41.288Z,11.50
2022-12-23T20:05:47.417Z,11.30
2022-12-23T20:07:49.975Z,11.50
2022-12-23T20:09:52.566Z,11.50
2022-12-23T20:11:55.134Z,11.60
2022-12-23T20:13:58.310Z,11.50
2022-12-23T20:16:01.054Z,11.50
2022-12-23T20:18:04.007Z,11.50
2022-12-23T20:20:08.858Z,11.50
2022-12-23T20:22:11.557Z,11.90
2022-12-23T20:24:14.670Z,11.50
2022-12-23T20:26:17.829Z,11.50
2022-12-23T20:28:20.494Z,11.50
2022-12-23T20:30:23.100Z,11.50
2022-12-23T20:32:25.710Z,11.50
2022-12-23T20:34:30.852Z,11.50
2022-12-23T20:36:33.593Z,11.50
2022-12-23T20:38:40.490Z,11.40
2022-12-23T20:40:43.023Z,11.40
2022-12-23T20:42:45.564Z,11.50
2022-12-23T20:44:48.391Z,11.40
2022-12-23T20:46:51.022Z,11.40
2022-12-23T20:48:53.782Z,11.40
2022-12-23T20:50:56.718Z,11.40
2022-12-23T20:52:59.397Z,11.40
2022-12-23T20:55:01.924Z,11.40
2022-12-23T20:57:04.507Z,11.40
2022-12-23T20:59:07.063Z,11.40
2022-12-23T21:01:10.021Z,11.40
2022-12-23T21:03:12.625Z,11.40
2022-12-23T21:05:15.552Z,11.40
2022-12-23T21:07:18.131Z,11.40
2022-12-23T21:09:20.683Z,11.40
2022-12-23T21:11:23.216Z,11.40
2022-12-23T21:13:25.808Z,11.40
2022-12-23T21:15:28.415Z,11.40
2022-12-23T21:17:30.945Z,11.40
2022-12-23T21:19:34.349Z,11.30
2022-12-23T21:21:36.857Z,11.30
2022-12-23T21:23:40.527Z,11.30
2022-12-23T21:25:43.035Z,11.30
2022-12-23T21:27:45.540Z,11.30
2022-12-23T21:29:48.136Z,11.30
2022-12-23T21:31:50.712Z,11.30
2022-12-23T21:33:56.360Z,11.00
2022-12-23T21:35:59.756Z,11.30
2022-12-23T21:38:02.535Z,11.30
2022-12-23T21:40:06.271Z,11.30
2022-12-23T21:42:08.752Z,11.30
2022-12-23T21:44:12.956Z,11.30
2022-12-23T21:46:16.324Z,11.30
2022-12-23T21:48:18.868Z,11.30
2022-12-23T21:50:21.384Z,11.20
2022-12-23T21:52:23.919Z,11.30
2022-12-23T21:54:26.420Z,11.30
2022-12-23T21:56:29.973Z,11.20
2022-12-23T21:58:34.224Z,11.30
2022-12-23T22:00:37.604Z,11.30
2022-12-23T22:02:40.419Z,11.30
2022-12-23T22:04:43.031Z,11.30
2022-12-23T22:06:45.995Z,11.30
2022-12-23T22:08:49.428Z,11.30
2022-12-23T22:10:52.634Z,11.30
2022-12-23T22:12:55.249Z,11.20
2022-12-23T22:14:58.212Z,11.30
2022-12-23T22:17:01.269Z,11.20
2022-12-23T22:19:04.928Z,11.20
2022-12-23T22:21:08.471Z,11.20
2022-12-23T22:23:11.130Z,11.20
2022-12-23T22:25:14.759Z,11.20
2022-12-23T22:27:17.783Z,11.20
2022-12-23T22:29:20.337Z,11.20
2022-12-23T22:31:25.252Z,11.20
2022-12-23T22:33:28.054Z,11.20
2022-12-23T22:35:30.670Z,11.20
2022-12-23T22:37:34.024Z,11.20
2022-12-23T22:39:37.104Z,11.20
2022-12-23T22:41:40.119Z,11.20
2022-12-23T22:43:42.938Z,11.20
2022-12-23T22:45:45.851Z,11.20
2022-12-23T22:47:48.668Z,11.20
2022-12-23T22:49:52.116Z,11.20
2022-12-23T22:51:55.652Z,11.20
2022-12-23T22:53:59.510Z,11.10
2022-12-23T22:56:03.039Z,11.10
2022-12-23T22:58:05.750Z,11.10
2022-12-23T23:00:12.483Z,11.10
2022-12-23T23:02:15.385Z,11.10
2022-12-23T23:04:18.538Z,11.10
2022-12-23T23:06:21.034Z,11.10
2022-12-23T23:08:23.886Z,11.10
2022-12-23T23:10:26.390Z,11.10
2022-12-23T23:12:28.875Z,11.00
2022-12-23T23:14:33.473Z,11.10
2022-12-23T23:16:36.228Z,11.10
2022-12-23T23:18:39.127Z,11.10
2022-12-23T23:20:41.751Z,11.10
2022-12-23T23:22:44.409Z,11.10
2022-12-23T23:24:47.162Z,11.10
2022-12-23T23:26:49.712Z,11.10
2022-12-23T23:28:52.242Z,11.00
2022-12-23T23:31:16.744Z,11.00
2022-12-23T23:32:59.080Z,11.00
2022-12-23T23:35:08.577Z,11.00
2022-12-23T23:37:05.942Z,11.10
2022-12-23T23:39:08.776Z,11.10
2022-12-23T23:41:11.291Z,11.00
2022-12-23T23:43:14.068Z,11.00
2022-12-23T23:45:16.699Z,10.90
2022-12-23T23:47:19.240Z,11.00
2022-12-23T23:49:22.687Z,10.90
2022-12-23T23:51:25.313Z,10.90
2022-12-23T23:53:27.899Z,10.90
2022-12-23T23:55:30.566Z,10.90
2022-12-23T23:57:33.856Z,10.90
2022-12-23T23:59:36.389Z,10.90
